Flight Track Log - Related Links

Times and Time Zones

All times are in EDT time to prevent confusion due to time zone crossing. See the XOJ793 flight status page for this flight to view local times or setup timezone preferences in your user account.

Time Position Orientation Groundspeed Altitude Reporting Facility
EDT Latitude Longitude Course Direction KTS MPH feet Rate Location/Type
Fri 05:15:40 PM 40.8264 -72.6511 222° Southwest 193 222 1,500  Level Boston Center
Fri 05:16:41 PM 40.7772 -72.7106 222° Southwest 226 260 6,100 3,968 Climbing Boston Center
Fri 05:17:44 PM 40.6817 -72.7111 180° South 285 328 9,700 1,887 Climbing Boston Center
Fri 05:18:45 PM 40.5897 -72.7644 204° Southwest 370 426 10,000 149 Climbing Boston Center
Fri 05:19:45 PM 40.5144 -72.8517 221° Southwest 363 418 10,000 48 Level Boston Center
Fri 05:20:49 PM 40.4431 -72.9314 220° Southwest 342 394 10,100  Climbing Boston Center
Fri 05:21:00 PM 40.5643 -72.7262 222° Southwest  Level FlightAware Approximate
Fri 05:21:51 PM 40.3719 -73.0136 221° Southwest 341 392 10,000  Level Boston Center
Fri 05:22:52 PM 40.2983 -73.0961 221° Southwest 344 396 10,000  Level Boston Center
Fri 05:23:53 PM 40.2233 -73.1814 221° Southwest 355 409 10,000 -528 Level Boston Center
Fri 05:24:57 PM 40.1497 -73.2633 220° Southwest 283 326 8,900 -968 Descending Boston Center
Fri 05:25:57 PM 40.0897 -73.3328 222° Southwest 286 329 8,000 -435 Descending Boston Center
Fri 05:27:01 PM 40.0303 -73.3981 220° Southwest 284 327 8,000  Level Boston Center
Fri 05:28:02 PM 39.9767 -73.4675 225° Southwest 278 320 8,000  Level Boston Center
Fri 05:29:03 PM 39.9839 -73.5722 275° West 280 322 8,000 -629 Level Boston Center
Fri 05:29:47 PM 39.9906 -73.6672 275° West 272 313 6,900 -1,500 Descending New York Center
Fri 05:30:47 PM 40.0006 -73.7650 278° West 278 320 5,400 -1,361 Descending New York Center
Fri 05:31:46 PM 40.0067 -73.8522 275° West 278 320 4,200 -661 Descending New York Center
Fri 05:32:45 PM 40.0311 -73.9536 288° West 272 313 4,100 -50 Descending New York Center
Fri 05:33:46 PM 40.0619 -74.0472 293° West 272 313 4,100  Level New York Center
Fri 05:34:48 PM 40.0906 -74.1381 292° West 272 313 4,100  Level New York Center
Fri 05:35:46 PM 40.1156 -74.2153 293° West 272 313 4,100 -51 Level New York Center
Fri 05:36:46 PM 40.1458 -74.3117 292° West 267 307 4,000 -50 Descending New York Center
Fri 05:37:47 PM 40.1722 -74.4028 291° West 267 307 4,000  Level New York Center
Fri 05:38:46 PM 40.2008 -74.4939 292° West 273 314 4,000 -50 Level New York Center
Fri 05:39:48 PM 40.2122 -74.5869 279° West 267 307 3,900 -151 Descending New York Center
Fri 05:40:45 PM 40.2242 -74.6719 280° West 255 293 3,700 -508 Descending New York Center
Fri 05:41:46 PM 40.2275 -74.7564 273° West 243 280 2,900 -393 Descending New York Center
Fri 05:42:47 PM 40.2128 -74.8233 254° West 219 252 2,900 -344 Level New York Center
Fri 05:43:48 PM 40.1819 -74.8678 228° Southwest 195 224 2,200 -500 Descending New York Center
Fri 05:44:47 PM 40.1514 -74.9094 226° Southwest 159 183 1,900 -458 Descending New York Center
Fri 05:45:46 PM 40.1314 -74.9464 235° Southwest 144 166 1,300 -694 Descending New York Center
Fri 05:46:48 PM 40.1050 -74.9828 227° Southwest 132 152 500 -397 Descending New York Center
Fri 05:47:47 PM 40.0853 -75.0114 228° Southwest 132 152 500 1,780 Level New York Center
Fri 05:48:46 PM 40.0631 -75.0453 229° Southwest 132 152 4,000 3,559 Climbing New York Center

Login

Don't have an account? Register now (free) for customized features, flight alerts, and more!